sensor_id;sensor_type;location;lat;lon;timestamp;P1;durP1;ratioP1;P2;durP2;ratioP2
6723;SDS011;3399;52.530;13.304;2024-01-10T00:01:15;45.80;;;26.33;;
6723;SDS011;3399;52.530;13.304;2024-01-10T00:03:41;54.20;;;29.33;;
6723;SDS011;3399;52.530;13.304;2024-01-10T00:06:06;44.43;;;25.60;;
6723;SDS011;3399;52.530;13.304;2024-01-10T00:08:32;53.23;;;28.57;;
6723;SDS011;3399;52.530;13.304;2024-01-10T00:10:57;46.97;;;27.73;;
6723;SDS011;3399;52.530;13.304;2024-01-10T00:13:23;47.27;;;27.43;;
6723;SDS011;3399;52.530;13.304;2024-01-10T00:15:48;47.00;;;27.63;;
6723;SDS011;3399;52.530;13.304;2024-01-10T00:18:14;46.63;;;27.13;;
6723;SDS011;3399;52.530;13.304;2024-01-10T00:20:40;49.90;;;28.83;;
6723;SDS011;3399;52.530;13.304;2024-01-10T00:23:05;52.83;;;30.80;;
6723;SDS011;3399;52.530;13.304;2024-01-10T00:25:31;52.03;;;29.77;;
6723;SDS011;3399;52.530;13.304;2024-01-10T00:27:57;51.80;;;30.20;;
6723;SDS011;3399;52.530;13.304;2024-01-10T00:30:23;51.83;;;28.70;;
6723;SDS011;3399;52.530;13.304;2024-01-10T00:32:50;50.43;;;29.40;;
6723;SDS011;3399;52.530;13.304;2024-01-10T00:35:16;45.57;;;27.27;;
6723;SDS011;3399;52.530;13.304;2024-01-10T00:37:41;50.50;;;29.00;;
6723;SDS011;3399;52.530;13.304;2024-01-10T00:40:07;50.27;;;29.93;;
6723;SDS011;3399;52.530;13.304;2024-01-10T00:42:33;53.10;;;30.13;;
6723;SDS011;3399;52.530;13.304;2024-01-10T00:44:59;52.60;;;28.73;;
6723;SDS011;3399;52.530;13.304;2024-01-10T00:47:24;57.67;;;31.90;;
6723;SDS011;3399;52.530;13.304;2024-01-10T00:49:50;54.83;;;28.33;;
6723;SDS011;3399;52.530;13.304;2024-01-10T00:52:15;49.27;;;30.57;;
6723;SDS011;3399;52.530;13.304;2024-01-10T00:54:41;52.13;;;29.77;;
6723;SDS011;3399;52.530;13.304;2024-01-10T00:57:06;54.33;;;32.17;;
6723;SDS011;3399;52.530;13.304;2024-01-10T00:59:32;52.77;;;30.43;;
6723;SDS011;3399;52.530;13.304;2024-01-10T01:01:57;53.37;;;30.07;;
6723;SDS011;3399;52.530;13.304;2024-01-10T01:04:23;46.37;;;30.30;;
6723;SDS011;3399;52.530;13.304;2024-01-10T01:06:48;57.13;;;31.60;;
6723;SDS011;3399;52.530;13.304;2024-01-10T01:09:13;53.23;;;30.10;;
6723;SDS011;3399;52.530;13.304;2024-01-10T01:11:40;58.57;;;30.53;;
6723;SDS011;3399;52.530;13.304;2024-01-10T01:14:06;51.67;;;28.43;;
6723;SDS011;3399;52.530;13.304;2024-01-10T01:16:31;51.53;;;29.60;;
6723;SDS011;3399;52.530;13.304;2024-01-10T01:18:57;46.87;;;27.83;;
6723;SDS011;3399;52.530;13.304;2024-01-10T01:21:22;51.83;;;29.10;;
6723;SDS011;3399;52.530;13.304;2024-01-10T01:23:48;54.97;;;27.93;;
6723;SDS011;3399;52.530;13.304;2024-01-10T01:26:13;53.73;;;30.90;;
6723;SDS011;3399;52.530;13.304;2024-01-10T01:28:39;53.03;;;28.90;;
6723;SDS011;3399;52.530;13.304;2024-01-10T01:31:05;50.20;;;27.03;;
6723;SDS011;3399;52.530;13.304;2024-01-10T01:33:30;46.17;;;27.40;;
6723;SDS011;3399;52.530;13.304;2024-01-10T01:35:56;56.33;;;29.70;;
6723;SDS011;3399;52.530;13.304;2024-01-10T01:38:21;63.70;;;30.27;;
6723;SDS011;3399;52.530;13.304;2024-01-10T01:40:47;57.60;;;27.63;;
6723;SDS011;3399;52.530;13.304;2024-01-10T01:43:22;47.00;;;27.37;;
6723;SDS011;3399;52.530;13.304;2024-01-10T01:45:50;52.23;;;27.20;;
6723;SDS011;3399;52.530;13.304;2024-01-10T01:48:20;48.23;;;27.23;;
6723;SDS011;3399;52.530;13.304;2024-01-10T01:50:47;48.80;;;27.10;;
6723;SDS011;3399;52.530;13.304;2024-01-10T01:53:16;44.97;;;27.60;;
6723;SDS011;3399;52.530;13.304;2024-01-10T01:55:43;53.10;;;28.47;;
6723;SDS011;3399;52.530;13.304;2024-01-10T01:58:10;50.73;;;27.70;;
6723;SDS011;3399;52.530;13.304;2024-01-10T02:00:36;52.03;;;28.33;;
6723;SDS011;3399;52.530;13.304;2024-01-10T02:03:02;59.77;;;30.40;;
6723;SDS011;3399;52.530;13.304;2024-01-10T02:05:29;51.70;;;29.50;;
6723;SDS011;3399;52.530;13.304;2024-01-10T02:07:55;50.17;;;27.53;;
6723;SDS011;3399;52.530;13.304;2024-01-10T02:10:20;47.07;;;26.97;;
6723;SDS011;3399;52.530;13.304;2024-01-10T02:12:46;48.10;;;28.13;;
6723;SDS011;3399;52.530;13.304;2024-01-10T02:15:12;49.80;;;30.27;;
6723;SDS011;3399;52.530;13.304;2024-01-10T02:17:39;46.03;;;28.03;;
6723;SDS011;3399;52.530;13.304;2024-01-10T02:20:11;52.17;;;30.57;;
6723;SDS011;3399;52.530;13.304;2024-01-10T02:22:38;51.33;;;29.17;;
6723;SDS011;3399;52.530;13.304;2024-01-10T02:25:04;46.80;;;27.67;;
6723;SDS011;3399;52.530;13.304;2024-01-10T02:27:34;50.60;;;28.83;;
6723;SDS011;3399;52.530;13.304;2024-01-10T02:30:02;55.63;;;29.70;;
6723;SDS011;3399;52.530;13.304;2024-01-10T02:32:28;49.03;;;28.07;;
6723;SDS011;3399;52.530;13.304;2024-01-10T02:34:54;47.17;;;26.60;;
6723;SDS011;3399;52.530;13.304;2024-01-10T02:37:20;45.13;;;26.93;;
6723;SDS011;3399;52.530;13.304;2024-01-10T02:39:46;51.10;;;26.77;;
6723;SDS011;3399;52.530;13.304;2024-01-10T02:42:11;46.67;;;28.63;;
6723;SDS011;3399;52.530;13.304;2024-01-10T02:44:37;52.80;;;28.00;;
6723;SDS011;3399;52.530;13.304;2024-01-10T02:47:02;43.97;;;26.30;;
6723;SDS011;3399;52.530;13.304;2024-01-10T02:49:28;50.17;;;31.43;;
6723;SDS011;3399;52.530;13.304;2024-01-10T02:51:54;42.60;;;26.67;;
6723;SDS011;3399;52.530;13.304;2024-01-10T02:54:19;54.67;;;29.87;;
6723;SDS011;3399;52.530;13.304;2024-01-10T02:56:45;46.77;;;28.20;;
6723;SDS011;3399;52.530;13.304;2024-01-10T02:59:10;47.70;;;26.33;;
6723;SDS011;3399;52.530;13.304;2024-01-10T03:01:36;47.63;;;28.57;;
6723;SDS011;3399;52.530;13.304;2024-01-10T03:04:01;53.87;;;29.40;;
6723;SDS011;3399;52.530;13.304;2024-01-10T03:06:27;51.30;;;29.37;;
6723;SDS011;3399;52.530;13.304;2024-01-10T03:08:54;52.80;;;30.43;;
6723;SDS011;3399;52.530;13.304;2024-01-10T03:11:19;55.10;;;29.03;;
6723;SDS011;3399;52.530;13.304;2024-01-10T03:13:45;52.03;;;28.37;;
6723;SDS011;3399;52.530;13.304;2024-01-10T03:16:12;47.70;;;27.97;;
6723;SDS011;3399;52.530;13.304;2024-01-10T03:18:37;54.00;;;30.43;;
6723;SDS011;3399;52.530;13.304;2024-01-10T03:21:03;54.73;;;30.30;;
6723;SDS011;3399;52.530;13.304;2024-01-10T03:23:29;61.87;;;32.47;;
6723;SDS011;3399;52.530;13.304;2024-01-10T03:25:55;48.87;;;31.00;;
6723;SDS011;3399;52.530;13.304;2024-01-10T03:28:21;53.77;;;29.77;;
6723;SDS011;3399;52.530;13.304;2024-01-10T03:30:47;55.30;;;30.43;;
6723;SDS011;3399;52.530;13.304;2024-01-10T03:33:12;56.70;;;29.10;;
6723;SDS011;3399;52.530;13.304;2024-01-10T03:35:38;57.10;;;33.20;;
6723;SDS011;3399;52.530;13.304;2024-01-10T03:38:03;50.23;;;31.20;;
6723;SDS011;3399;52.530;13.304;2024-01-10T03:40:29;52.77;;;30.33;;
6723;SDS011;3399;52.530;13.304;2024-01-10T03:42:55;51.93;;;31.07;;
6723;SDS011;3399;52.530;13.304;2024-01-10T03:45:20;55.47;;;30.23;;
6723;SDS011;3399;52.530;13.304;2024-01-10T03:47:48;50.07;;;29.97;;
6723;SDS011;3399;52.530;13.304;2024-01-10T03:50:17;51.30;;;28.83;;
6723;SDS011;3399;52.530;13.304;2024-01-10T03:52:44;56.37;;;31.10;;
6723;SDS011;3399;52.530;13.304;2024-01-10T03:55:11;56.43;;;30.20;;
6723;SDS011;3399;52.530;13.304;2024-01-10T03:57:37;54.60;;;30.33;;
6723;SDS011;3399;52.530;13.304;2024-01-10T04:00:06;60.27;;;31.10;;
6723;SDS011;3399;52.530;13.304;2024-01-10T04:02:32;53.10;;;31.43;;
6723;SDS011;3399;52.530;13.304;2024-01-10T04:04:57;56.07;;;31.87;;
6723;SDS011;3399;52.530;13.304;2024-01-10T04:07:23;53.67;;;29.67;;
6723;SDS011;3399;52.530;13.304;2024-01-10T04:09:49;56.73;;;30.67;;
6723;SDS011;3399;52.530;13.304;2024-01-10T04:12:14;55.90;;;31.27;;
6723;SDS011;3399;52.530;13.304;2024-01-10T04:14:40;61.90;;;32.30;;
6723;SDS011;3399;52.530;13.304;2024-01-10T04:17:05;58.03;;;30.90;;
6723;SDS011;3399;52.530;13.304;2024-01-10T04:19:32;50.80;;;32.53;;
6723;SDS011;3399;52.530;13.304;2024-01-10T04:21:57;58.90;;;31.43;;
6723;SDS011;3399;52.530;13.304;2024-01-10T04:24:23;51.83;;;31.40;;
6723;SDS011;3399;52.530;13.304;2024-01-10T04:26:49;51.87;;;30.63;;
6723;SDS011;3399;52.530;13.304;2024-01-10T04:29:15;50.90;;;30.20;;
6723;SDS011;3399;52.530;13.304;2024-01-10T04:31:40;54.20;;;30.27;;
6723;SDS011;3399;52.530;13.304;2024-01-10T04:34:06;53.50;;;32.43;;
6723;SDS011;3399;52.530;13.304;2024-01-10T04:36:31;56.20;;;33.63;;
6723;SDS011;3399;52.530;13.304;2024-01-10T04:38:57;50.87;;;32.00;;
6723;SDS011;3399;52.530;13.304;2024-01-10T04:41:22;51.60;;;29.67;;
6723;SDS011;3399;52.530;13.304;2024-01-10T04:43:48;52.07;;;31.93;;
6723;SDS011;3399;52.530;13.304;2024-01-10T04:46:14;60.50;;;32.10;;
6723;SDS011;3399;52.530;13.304;2024-01-10T04:48:39;55.17;;;30.63;;
6723;SDS011;3399;52.530;13.304;2024-01-10T04:51:05;59.20;;;33.07;;
6723;SDS011;3399;52.530;13.304;2024-01-10T04:53:30;50.53;;;30.93;;
6723;SDS011;3399;52.530;13.304;2024-01-10T04:55:56;56.97;;;31.87;;
6723;SDS011;3399;52.530;13.304;2024-01-10T04:58:21;47.67;;;31.90;;
6723;SDS011;3399;52.530;13.304;2024-01-10T05:00:47;58.57;;;31.00;;
6723;SDS011;3399;52.530;13.304;2024-01-10T05:03:12;51.50;;;31.13;;
6723;SDS011;3399;52.530;13.304;2024-01-10T05:05:38;56.97;;;31.17;;
6723;SDS011;3399;52.530;13.304;2024-01-10T05:08:04;55.30;;;30.93;;
6723;SDS011;3399;52.530;13.304;2024-01-10T05:10:30;49.23;;;30.23;;
6723;SDS011;3399;52.530;13.304;2024-01-10T05:12:55;55.10;;;32.20;;
6723;SDS011;3399;52.530;13.304;2024-01-10T05:15:21;59.97;;;31.67;;
6723;SDS011;3399;52.530;13.304;2024-01-10T05:17:46;64.60;;;31.77;;
6723;SDS011;3399;52.530;13.304;2024-01-10T05:20:12;51.80;;;31.23;;
6723;SDS011;3399;52.530;13.304;2024-01-10T05:22:39;52.23;;;31.10;;
6723;SDS011;3399;52.530;13.304;2024-01-10T05:25:05;65.63;;;33.83;;
6723;SDS011;3399;52.530;13.304;2024-01-10T05:27:31;54.43;;;32.10;;
6723;SDS011;3399;52.530;13.304;2024-01-10T05:29:57;55.10;;;32.17;;
6723;SDS011;3399;52.530;13.304;2024-01-10T05:32:24;62.30;;;33.07;;
6723;SDS011;3399;52.530;13.304;2024-01-10T05:34:50;66.83;;;34.33;;
6723;SDS011;3399;52.530;13.304;2024-01-10T05:37:15;61.43;;;34.93;;
6723;SDS011;3399;52.530;13.304;2024-01-10T05:39:41;56.97;;;34.70;;
6723;SDS011;3399;52.530;13.304;2024-01-10T05:42:06;56.63;;;32.30;;
6723;SDS011;3399;52.530;13.304;2024-01-10T05:44:32;61.10;;;33.57;;
6723;SDS011;3399;52.530;13.304;2024-01-10T05:46:57;67.40;;;36.80;;
6723;SDS011;3399;52.530;13.304;2024-01-10T05:49:24;57.33;;;33.60;;
6723;SDS011;3399;52.530;13.304;2024-01-10T05:51:50;61.73;;;34.40;;
6723;SDS011;3399;52.530;13.304;2024-01-10T05:54:16;58.97;;;35.83;;
6723;SDS011;3399;52.530;13.304;2024-01-10T05:56:43;60.53;;;33.57;;
6723;SDS011;3399;52.530;13.304;2024-01-10T05:59:08;58.97;;;33.10;;
6723;SDS011;3399;52.530;13.304;2024-01-10T06:01:36;66.00;;;35.80;;
6723;SDS011;3399;52.530;13.304;2024-01-10T06:04:03;57.23;;;33.67;;
6723;SDS011;3399;52.530;13.304;2024-01-10T06:06:29;62.67;;;34.70;;
6723;SDS011;3399;52.530;13.304;2024-01-10T06:08:54;59.87;;;34.50;;
6723;SDS011;3399;52.530;13.304;2024-01-10T06:11:20;66.53;;;35.57;;
6723;SDS011;3399;52.530;13.304;2024-01-10T06:13:45;62.23;;;33.10;;
6723;SDS011;3399;52.530;13.304;2024-01-10T06:16:11;56.27;;;33.00;;
6723;SDS011;3399;52.530;13.304;2024-01-10T06:18:38;60.17;;;32.27;;
6723;SDS011;3399;52.530;13.304;2024-01-10T06:21:03;58.83;;;35.07;;
6723;SDS011;3399;52.530;13.304;2024-01-10T06:23:29;59.40;;;32.50;;
6723;SDS011;3399;52.530;13.304;2024-01-10T06:25:54;56.87;;;32.53;;
6723;SDS011;3399;52.530;13.304;2024-01-10T06:28:20;63.47;;;35.13;;
6723;SDS011;3399;52.530;13.304;2024-01-10T06:30:46;68.07;;;34.47;;
6723;SDS011;3399;52.530;13.304;2024-01-10T06:33:12;60.50;;;34.20;;
6723;SDS011;3399;52.530;13.304;2024-01-10T06:35:37;56.27;;;31.50;;
6723;SDS011;3399;52.530;13.304;2024-01-10T06:38:03;63.23;;;36.23;;
6723;SDS011;3399;52.530;13.304;2024-01-10T06:40:29;54.17;;;31.63;;
6723;SDS011;3399;52.530;13.304;2024-01-10T06:42:55;55.87;;;35.03;;
6723;SDS011;3399;52.530;13.304;2024-01-10T06:45:20;57.87;;;34.33;;
6723;SDS011;3399;52.530;13.304;2024-01-10T06:47:48;62.33;;;33.03;;
6723;SDS011;3399;52.530;13.304;2024-01-10T06:50:14;55.37;;;34.00;;
6723;SDS011;3399;52.530;13.304;2024-01-10T06:52:40;55.93;;;30.97;;
6723;SDS011;3399;52.530;13.304;2024-01-10T06:55:07;61.90;;;35.70;;
6723;SDS011;3399;52.530;13.304;2024-01-10T06:57:33;57.13;;;33.30;;
6723;SDS011;3399;52.530;13.304;2024-01-10T06:59:58;60.20;;;32.70;;
6723;SDS011;3399;52.530;13.304;2024-01-10T07:02:24;58.43;;;34.90;;
6723;SDS011;3399;52.530;13.304;2024-01-10T07:04:50;54.83;;;32.83;;
6723;SDS011;3399;52.530;13.304;2024-01-10T07:07:15;53.63;;;34.37;;
6723;SDS011;3399;52.530;13.304;2024-01-10T07:09:42;50.53;;;32.67;;
6723;SDS011;3399;52.530;13.304;2024-01-10T07:12:07;56.97;;;32.27;;
6723;SDS011;3399;52.530;13.304;2024-01-10T07:14:33;58.00;;;33.00;;
6723;SDS011;3399;52.530;13.304;2024-01-10T07:16:58;55.40;;;33.27;;
6723;SDS011;3399;52.530;13.304;2024-01-10T07:19:24;58.17;;;33.60;;
6723;SDS011;3399;52.530;13.304;2024-01-10T07:21:50;61.70;;;32.43;;
6723;SDS011;3399;52.530;13.304;2024-01-10T07:24:15;59.67;;;33.50;;
6723;SDS011;3399;52.530;13.304;2024-01-10T07:26:41;60.87;;;31.50;;
6723;SDS011;3399;52.530;13.304;2024-01-10T07:29:06;56.60;;;30.83;;
6723;SDS011;3399;52.530;13.304;2024-01-10T07:31:34;56.70;;;32.13;;
6723;SDS011;3399;52.530;13.304;2024-01-10T07:34:01;62.20;;;34.20;;
6723;SDS011;3399;52.530;13.304;2024-01-10T07:36:29;56.37;;;32.20;;
6723;SDS011;3399;52.530;13.304;2024-01-10T07:38:58;54.33;;;30.57;;
6723;SDS011;3399;52.530;13.304;2024-01-10T07:41:24;60.97;;;32.67;;
6723;SDS011;3399;52.530;13.304;2024-01-10T07:43:50;50.87;;;30.00;;
6723;SDS011;3399;52.530;13.304;2024-01-10T07:46:15;44.87;;;29.03;;
6723;SDS011;3399;52.530;13.304;2024-01-10T07:48:41;49.30;;;29.27;;
6723;SDS011;3399;52.530;13.304;2024-01-10T07:51:06;49.00;;;29.93;;
6723;SDS011;3399;52.530;13.304;2024-01-10T07:53:32;49.03;;;30.53;;
6723;SDS011;3399;52.530;13.304;2024-01-10T07:55:57;50.73;;;30.50;;
6723;SDS011;3399;52.530;13.304;2024-01-10T07:58:22;53.57;;;29.80;;
6723;SDS011;3399;52.530;13.304;2024-01-10T08:00:48;58.87;;;32.17;;
6723;SDS011;3399;52.530;13.304;2024-01-10T08:03:13;64.83;;;33.57;;
6723;SDS011;3399;52.530;13.304;2024-01-10T08:05:39;60.53;;;31.83;;
6723;SDS011;3399;52.530;13.304;2024-01-10T08:08:04;53.70;;;33.60;;
6723;SDS011;3399;52.530;13.304;2024-01-10T08:10:30;59.00;;;32.90;;
6723;SDS011;3399;52.530;13.304;2024-01-10T08:12:57;62.13;;;34.47;;
6723;SDS011;3399;52.530;13.304;2024-01-10T08:15:23;57.93;;;32.60;;
6723;SDS011;3399;52.530;13.304;2024-01-10T08:17:48;65.20;;;34.20;;
6723;SDS011;3399;52.530;13.304;2024-01-10T08:20:14;63.13;;;35.17;;
6723;SDS011;3399;52.530;13.304;2024-01-10T08:22:44;54.17;;;33.93;;
6723;SDS011;3399;52.530;13.304;2024-01-10T08:25:10;58.77;;;33.57;;
6723;SDS011;3399;52.530;13.304;2024-01-10T08:27:35;56.30;;;31.70;;
6723;SDS011;3399;52.530;13.304;2024-01-10T08:30:01;61.17;;;32.80;;
6723;SDS011;3399;52.530;13.304;2024-01-10T08:32:29;62.80;;;34.27;;
6723;SDS011;3399;52.530;13.304;2024-01-10T08:34:55;66.10;;;34.40;;
6723;SDS011;3399;52.530;13.304;2024-01-10T08:37:20;50.53;;;29.30;;
6723;SDS011;3399;52.530;13.304;2024-01-10T08:39:46;51.37;;;29.80;;
6723;SDS011;3399;52.530;13.304;2024-01-10T08:42:12;51.23;;;30.53;;
6723;SDS011;3399;52.530;13.304;2024-01-10T08:44:38;54.93;;;28.60;;
6723;SDS011;3399;52.530;13.304;2024-01-10T08:47:03;54.47;;;30.77;;
6723;SDS011;3399;52.530;13.304;2024-01-10T08:49:29;47.03;;;28.83;;
6723;SDS011;3399;52.530;13.304;2024-01-10T08:51:54;54.10;;;31.30;;
6723;SDS011;3399;52.530;13.304;2024-01-10T08:54:20;58.43;;;31.53;;
6723;SDS011;3399;52.530;13.304;2024-01-10T08:56:47;53.43;;;32.27;;
6723;SDS011;3399;52.530;13.304;2024-01-10T08:59:13;51.57;;;30.57;;
6723;SDS011;3399;52.530;13.304;2024-01-10T09:01:38;57.97;;;33.30;;
6723;SDS011;3399;52.530;13.304;2024-01-10T09:04:07;52.37;;;34.27;;
6723;SDS011;3399;52.530;13.304;2024-01-10T09:06:32;51.33;;;27.70;;
6723;SDS011;3399;52.530;13.304;2024-01-10T09:08:58;45.37;;;27.87;;
6723;SDS011;3399;52.530;13.304;2024-01-10T09:11:24;49.90;;;25.50;;
6723;SDS011;3399;52.530;13.304;2024-01-10T09:13:50;48.63;;;27.43;;
6723;SDS011;3399;52.530;13.304;2024-01-10T09:16:16;46.17;;;27.07;;
6723;SDS011;3399;52.530;13.304;2024-01-10T09:18:43;43.13;;;27.43;;
6723;SDS011;3399;52.530;13.304;2024-01-10T09:21:09;50.10;;;29.03;;
6723;SDS011;3399;52.530;13.304;2024-01-10T09:23:34;44.97;;;26.30;;
6723;SDS011;3399;52.530;13.304;2024-01-10T09:26:00;46.47;;;27.13;;
6723;SDS011;3399;52.530;13.304;2024-01-10T09:28:25;55.93;;;30.73;;
6723;SDS011;3399;52.530;13.304;2024-01-10T09:30:51;54.77;;;29.27;;
6723;SDS011;3399;52.530;13.304;2024-01-10T09:33:17;51.73;;;28.67;;
6723;SDS011;3399;52.530;13.304;2024-01-10T09:35:42;45.83;;;26.97;;
6723;SDS011;3399;52.530;13.304;2024-01-10T09:38:08;52.57;;;28.53;;
6723;SDS011;3399;52.530;13.304;2024-01-10T09:40:33;42.03;;;26.27;;
6723;SDS011;3399;52.530;13.304;2024-01-10T09:42:59;50.33;;;27.27;;
6723;SDS011;3399;52.530;13.304;2024-01-10T09:45:25;50.53;;;27.00;;
6723;SDS011;3399;52.530;13.304;2024-01-10T09:47:52;45.37;;;26.20;;
6723;SDS011;3399;52.530;13.304;2024-01-10T09:50:21;46.80;;;24.73;;
6723;SDS011;3399;52.530;13.304;2024-01-10T09:52:51;44.83;;;23.57;;
6723;SDS011;3399;52.530;13.304;2024-01-10T09:55:19;46.20;;;27.53;;
6723;SDS011;3399;52.530;13.304;2024-01-10T09:57:48;46.93;;;26.83;;
6723;SDS011;3399;52.530;13.304;2024-01-10T10:00:14;42.93;;;25.33;;
6723;SDS011;3399;52.530;13.304;2024-01-10T10:02:41;45.20;;;25.87;;
6723;SDS011;3399;52.530;13.304;2024-01-10T10:05:13;49.70;;;26.90;;
6723;SDS011;3399;52.530;13.304;2024-01-10T10:07:44;48.57;;;26.33;;
6723;SDS011;3399;52.530;13.304;2024-01-10T10:10:13;47.93;;;25.17;;
6723;SDS011;3399;52.530;13.304;2024-01-10T10:12:47;49.37;;;28.30;;
6723;SDS011;3399;52.530;13.304;2024-01-10T10:15:15;53.10;;;31.43;;
6723;SDS011;3399;52.530;13.304;2024-01-10T10:17:45;57.40;;;33.03;;
6723;SDS011;3399;52.530;13.304;2024-01-10T10:20:22;64.03;;;34.53;;
6723;SDS011;3399;52.530;13.304;2024-01-10T10:23:04;46.80;;;30.43;;
6723;SDS011;3399;52.530;13.304;2024-01-10T10:25:32;52.73;;;31.27;;
6723;SDS011;3399;52.530;13.304;2024-01-10T10:28:07;61.40;;;34.27;;
6723;SDS011;3399;52.530;13.304;2024-01-10T10:30:32;60.07;;;31.63;;
6723;SDS011;3399;52.530;13.304;2024-01-10T10:32:59;51.37;;;32.57;;
6723;SDS011;3399;52.530;13.304;2024-01-10T10:35:25;64.13;;;33.70;;
6723;SDS011;3399;52.530;13.304;2024-01-10T10:37:53;58.23;;;33.47;;
6723;SDS011;3399;52.530;13.304;2024-01-10T10:40:19;65.07;;;33.53;;
6723;SDS011;3399;52.530;13.304;2024-01-10T10:42:46;55.57;;;30.97;;
6723;SDS011;3399;52.530;13.304;2024-01-10T10:45:16;52.57;;;30.57;;
6723;SDS011;3399;52.530;13.304;2024-01-10T10:47:43;55.53;;;30.23;;
6723;SDS011;3399;52.530;13.304;2024-01-10T10:50:13;42.63;;;27.13;;
6723;SDS011;3399;52.530;13.304;2024-01-10T10:52:47;48.87;;;28.17;;
6723;SDS011;3399;52.530;13.304;2024-01-10T10:55:16;49.00;;;30.03;;
6723;SDS011;3399;52.530;13.304;2024-01-10T10:57:47;49.43;;;29.17;;
6723;SDS011;3399;52.530;13.304;2024-01-10T11:00:14;48.87;;;28.40;;
6723;SDS011;3399;52.530;13.304;2024-01-10T11:02:41;47.53;;;29.07;;
6723;SDS011;3399;52.530;13.304;2024-01-10T11:05:07;51.47;;;28.40;;
6723;SDS011;3399;52.530;13.304;2024-01-10T11:07:37;53.30;;;29.27;;
6723;SDS011;3399;52.530;13.304;2024-01-10T11:10:06;50.03;;;26.47;;
6723;SDS011;3399;52.530;13.304;2024-01-10T11:18:35;44.90;;;27.57;;
6723;SDS011;3399;52.530;13.304;2024-01-10T11:21:18;45.70;;;25.20;;
6723;SDS011;3399;52.530;13.304;2024-01-10T11:24:02;35.13;;;21.17;;
6723;SDS011;3399;52.530;13.304;2024-01-10T11:26:29;32.40;;;20.07;;
6723;SDS011;3399;52.530;13.304;2024-01-10T11:28:55;43.00;;;23.90;;
6723;SDS011;3399;52.530;13.304;2024-01-10T11:31:31;42.17;;;24.17;;
6723;SDS011;3399;52.530;13.304;2024-01-10T11:33:58;35.50;;;21.30;;
6723;SDS011;3399;52.530;13.304;2024-01-10T11:36:30;36.73;;;23.03;;
6723;SDS011;3399;52.530;13.304;2024-01-10T11:39:00;31.53;;;18.87;;
6723;SDS011;3399;52.530;13.304;2024-01-10T11:41:36;38.30;;;21.37;;
6723;SDS011;3399;52.530;13.304;2024-01-10T11:49:12;31.97;;;19.47;;
6723;SDS011;3399;52.530;13.304;2024-01-10T11:51:43;33.60;;;20.37;;
6723;SDS011;3399;52.530;13.304;2024-01-10T11:54:10;25.07;;;17.57;;
6723;SDS011;3399;52.530;13.304;2024-01-10T11:56:39;25.47;;;16.30;;
6723;SDS011;3399;52.530;13.304;2024-01-10T11:59:07;33.23;;;19.30;;
6723;SDS011;3399;52.530;13.304;2024-01-10T12:01:34;32.87;;;20.93;;
6723;SDS011;3399;52.530;13.304;2024-01-10T12:04:01;34.03;;;18.80;;
6723;SDS011;3399;52.530;13.304;2024-01-10T12:06:28;42.40;;;20.10;;
6723;SDS011;3399;52.530;13.304;2024-01-10T12:08:54;31.27;;;19.23;;
6723;SDS011;3399;52.530;13.304;2024-01-10T12:11:20;30.63;;;18.83;;
6723;SDS011;3399;52.530;13.304;2024-01-10T12:13:45;31.50;;;18.23;;
6723;SDS011;3399;52.530;13.304;2024-01-10T12:16:12;29.57;;;19.40;;
6723;SDS011;3399;52.530;13.304;2024-01-10T12:18:42;29.60;;;17.70;;
6723;SDS011;3399;52.530;13.304;2024-01-10T12:21:08;26.50;;;17.77;;
6723;SDS011;3399;52.530;13.304;2024-01-10T12:23:36;31.37;;;17.97;;
6723;SDS011;3399;52.530;13.304;2024-01-10T12:26:02;34.93;;;20.60;;
6723;SDS011;3399;52.530;13.304;2024-01-10T12:28:29;31.50;;;21.00;;
6723;SDS011;3399;52.530;13.304;2024-01-10T12:30:55;34.63;;;22.27;;
6723;SDS011;3399;52.530;13.304;2024-01-10T12:33:22;38.10;;;22.23;;
6723;SDS011;3399;52.530;13.304;2024-01-10T12:36:09;37.93;;;23.13;;
6723;SDS011;3399;52.530;13.304;2024-01-10T12:38:36;36.67;;;22.50;;
6723;SDS011;3399;52.530;13.304;2024-01-10T12:41:05;37.70;;;22.30;;
6723;SDS011;3399;52.530;13.304;2024-01-10T12:43:35;34.33;;;20.93;;
6723;SDS011;3399;52.530;13.304;2024-01-10T12:48:30;32.90;;;22.43;;
6723;SDS011;3399;52.530;13.304;2024-01-10T12:50:58;38.70;;;23.37;;
6723;SDS011;3399;52.530;13.304;2024-01-10T12:53:28;35.03;;;23.57;;
6723;SDS011;3399;52.530;13.304;2024-01-10T12:55:54;33.53;;;22.10;;
6723;SDS011;3399;52.530;13.304;2024-01-10T12:58:20;34.97;;;22.27;;
6723;SDS011;3399;52.530;13.304;2024-01-10T13:00:46;38.33;;;22.97;;
6723;SDS011;3399;52.530;13.304;2024-01-10T13:03:11;31.80;;;21.37;;
6723;SDS011;3399;52.530;13.304;2024-01-10T13:05:37;35.67;;;22.10;;
6723;SDS011;3399;52.530;13.304;2024-01-10T13:08:03;30.13;;;20.17;;
6723;SDS011;3399;52.530;13.304;2024-01-10T13:10:30;32.97;;;22.23;;
6723;SDS011;3399;52.530;13.304;2024-01-10T13:12:56;40.30;;;22.10;;
6723;SDS011;3399;52.530;13.304;2024-01-10T13:15:21;29.43;;;20.13;;
6723;SDS011;3399;52.530;13.304;2024-01-10T13:17:47;32.70;;;21.43;;
6723;SDS011;3399;52.530;13.304;2024-01-10T13:20:12;34.73;;;21.37;;
6723;SDS011;3399;52.530;13.304;2024-01-10T13:22:38;29.00;;;19.97;;
6723;SDS011;3399;52.530;13.304;2024-01-10T13:25:04;33.00;;;20.30;;
6723;SDS011;3399;52.530;13.304;2024-01-10T13:27:30;32.73;;;20.70;;
6723;SDS011;3399;52.530;13.304;2024-01-10T13:29:57;33.03;;;20.10;;
6723;SDS011;3399;52.530;13.304;2024-01-10T13:32:22;32.47;;;21.47;;
6723;SDS011;3399;52.530;13.304;2024-01-10T13:34:48;32.33;;;20.10;;
6723;SDS011;3399;52.530;13.304;2024-01-10T13:37:13;35.53;;;19.30;;
6723;SDS011;3399;52.530;13.304;2024-01-10T13:39:40;34.23;;;18.77;;
6723;SDS011;3399;52.530;13.304;2024-01-10T13:42:06;37.07;;;19.07;;
6723;SDS011;3399;52.530;13.304;2024-01-10T13:44:31;34.97;;;18.00;;
6723;SDS011;3399;52.530;13.304;2024-01-10T13:46:57;37.00;;;20.63;;
6723;SDS011;3399;52.530;13.304;2024-01-10T13:49:22;33.33;;;19.10;;
6723;SDS011;3399;52.530;13.304;2024-01-10T13:51:48;30.50;;;18.67;;
6723;SDS011;3399;52.530;13.304;2024-01-10T13:54:13;28.77;;;18.90;;
6723;SDS011;3399;52.530;13.304;2024-01-10T13:56:39;29.50;;;18.57;;
6723;SDS011;3399;52.530;13.304;2024-01-10T13:59:05;32.33;;;19.37;;
6723;SDS011;3399;52.530;13.304;2024-01-10T14:01:30;29.60;;;16.93;;
6723;SDS011;3399;52.530;13.304;2024-01-10T14:03:56;32.10;;;18.03;;
6723;SDS011;3399;52.530;13.304;2024-01-10T14:06:22;31.47;;;18.43;;
6723;SDS011;3399;52.530;13.304;2024-01-10T14:08:47;31.93;;;19.70;;
6723;SDS011;3399;52.530;13.304;2024-01-10T14:11:13;34.57;;;17.97;;
6723;SDS011;3399;52.530;13.304;2024-01-10T14:13:39;28.63;;;17.60;;
6723;SDS011;3399;52.530;13.304;2024-01-10T14:16:05;32.53;;;18.33;;
6723;SDS011;3399;52.530;13.304;2024-01-10T14:18:31;29.50;;;17.77;;
6723;SDS011;3399;52.530;13.304;2024-01-10T14:20:56;31.13;;;16.80;;
6723;SDS011;3399;52.530;13.304;2024-01-10T14:23:22;26.93;;;17.67;;
6723;SDS011;3399;52.530;13.304;2024-01-10T14:25:47;30.23;;;18.37;;
6723;SDS011;3399;52.530;13.304;2024-01-10T14:28:13;27.53;;;17.50;;
6723;SDS011;3399;52.530;13.304;2024-01-10T14:30:39;32.17;;;17.47;;
6723;SDS011;3399;52.530;13.304;2024-01-10T14:33:05;29.77;;;17.63;;
6723;SDS011;3399;52.530;13.304;2024-01-10T14:35:31;28.13;;;17.47;;
6723;SDS011;3399;52.530;13.304;2024-01-10T14:37:56;32.03;;;17.20;;
6723;SDS011;3399;52.530;13.304;2024-01-10T14:40:22;27.33;;;16.53;;
6723;SDS011;3399;52.530;13.304;2024-01-10T14:42:49;27.93;;;18.47;;